Flight Track Log - Related Links

Times and Time Zones

All times are in EDT time to prevent confusion due to time zone crossing. See the SWA641 flight status page for this flight to view local times or setup timezone preferences in your user account.

Time Position Orientation Groundspeed Altitude Reporting Facility
EDT Latitude Longitude Course Direction KTS MPH feet Rate Location/Type
Wed 01:19:48 PM 38.7300 -90.2728 98° East 152 175 1,700  Level FAA TRACON SMA TRACON (SMA)
Wed 01:20:08 PM 38.7278 -90.2533 98° East 172 198 2,100 1,800 Climbing FAA TRACON SMA TRACON (SMA)
Wed 01:20:28 PM 38.7247 -90.2242 98° East 209 241 2,900 2,400 Climbing FAA TRACON SMA TRACON (SMA)
Wed 01:20:48 PM 38.7214 -90.1994 100° East 226 260 3,700 1,950 Climbing FAA TRACON SMA TRACON (SMA)
Wed 01:21:08 PM 38.7208 -90.1711 91° East 249 287 4,200 2,400 Climbing FAA TRACON SMA TRACON (SMA)
Wed 01:21:28 PM 38.7214 -90.1322 89° East 281 323 5,300 3,150 Climbing FAA TRACON SMA TRACON (SMA)
Wed 01:21:48 PM 38.7250 -90.0997 82° East 296 341 6,300 3,366 Climbing FAA TRACON SMA TRACON (SMA)
Wed 01:22:09 PM 38.7283 -90.0664 83° East 307 353 7,600 4,350 Climbing FAA TRACON SMA TRACON (SMA)
Wed 01:22:28 PM 38.7319 -90.0239 84° East 313 360 9,200 4,462 Climbing FAA TRACON SMA TRACON (SMA)
Wed 01:22:48 PM 38.7358 -89.9889 82° East 319 367 10,500 3,512 Climbing FAA TRACON SMA TRACON (SMA)
Wed 01:23:09 PM 38.7403 -89.9444 83° East 327 376 11,600 3,150 Climbing FAA TRACON SMA TRACON (SMA)
Wed 01:23:28 PM 38.7442 -89.9061 83° East 346 398 12,600 3,385 Climbing FAA TRACON SMA TRACON (SMA)
Wed 01:23:48 PM 38.7481 -89.8672 83° East 358 412 13,800 3,659 Climbing FAA TRACON SMA TRACON (SMA)
Wed 01:24:09 PM 38.7531 -89.8175 83° East 367 422 15,100 3,450 Climbing FAA TRACON SMA TRACON (SMA)
Wed 01:24:28 PM 38.7578 -89.7758 82° East 378 435 16,100 3,077 Climbing FAA TRACON SMA TRACON (SMA)
Wed 01:24:48 PM 38.7617 -89.7342 83° East 385 443 17,100 3,366 Climbing FAA TRACON SMA TRACON (SMA)
Wed 01:25:09 PM 38.7675 -89.6803 82° East 394 453 18,400 3,366 Climbing FAA TRACON SMA TRACON (SMA)
Wed 01:25:29 PM 38.7714 -89.6364 84° East 401 461 19,400 2,923 Climbing FAA TRACON SMA TRACON (SMA)
Wed 01:25:48 PM 38.7767 -89.5922 81° East 408 470 20,300 2,769 Climbing FAA TRACON SMA TRACON (SMA)
Wed 01:26:08 PM 38.7806 -89.5469 84° East 413 475 21,200 3,150 Climbing FAA TRACON SMA TRACON (SMA)
Wed 01:26:28 PM 38.7864 -89.4897 83° East 420 483 22,400 3,150 Climbing FAA TRACON SMA TRACON (SMA)
Wed 01:26:48 PM 38.7919 -89.4436 81° East 424 488 23,300 2,550 Climbing FAA TRACON SMA TRACON (SMA)
Wed 01:27:08 PM 38.7967 -89.3972 83° East 427 491 24,100 2,700 Climbing FAA TRACON SMA TRACON (SMA)
Wed 01:27:28 PM 38.8061 -89.3383 78° East 437 503 25,100 2,634 Climbing FAA TRACON SMA TRACON (SMA)
Wed 01:27:49 PM 38.8114 -89.2903 82° East 442 509 25,900 2,372 Climbing FAA TRACON SMA TRACON (SMA)
Wed 01:28:11 PM 38.8194 -89.2297 80° East 446 513 26,800 2,286 Climbing FAA TRACON SMA TRACON (SMA)
Wed 01:28:31 PM 38.8256 -89.1808 81° East 452 520 27,500 2,368 Climbing FAA TRACON SMA TRACON (SMA)
Wed 01:28:49 PM 38.8336 -89.1319 78° East 456 525 28,300 2,270 Climbing FAA TRACON SMA TRACON (SMA)
Wed 01:29:08 PM 38.8403 -89.0822 80° East 458 527 28,900 1,231 Climbing FAA TRACON SMA TRACON (SMA)
Wed 01:29:28 PM 38.8428 -89.0700 75° East 459 528 29,100 293 Climbing FAA TRACON SMA TRACON (SMA)
Wed 01:29:49 PM 38.8428 -89.0700 180° South 459 528 29,100 2,323 Level FAA TRACON SMA TRACON (SMA)
Wed 01:30:30 PM 38.8667 -88.9286 78° East 468 539 31,500 2,706 Climbing Kansas City Center
Wed 01:31:31 PM 38.8908 -88.7600 80° East 479 551 33,700 1,694 Climbing Kansas City Center
Wed 01:32:34 PM 38.9108 -88.5831 82° East 468 539 35,000 624 Climbing Kansas City Center
Wed 01:33:36 PM 38.9375 -88.4236 78° East 457 526 35,000  Level Kansas City Center
Wed 01:34:25 PM 38.9711 -88.3003 71° East 459 528 35,000  Level Indianapolis Center
Wed 01:35:26 PM 39.0139 -88.1456 70° East 460 529 35,000 537 Level Indianapolis Center
Wed 01:36:28 PM 39.0519 -87.9883 73° East 459 528 36,100 1,258 Climbing Indianapolis Center
Wed 01:37:30 PM 39.0786 -87.8264 78° East 460 529 37,600 919 Climbing Indianapolis Center
Wed 01:38:32 PM 39.1133 -87.6314 77° East 462 532 38,000 341 Climbing Indianapolis Center
Wed 01:39:33 PM 39.1428 -87.4656 77° East 468 539 38,300 732 Climbing Indianapolis Center
Wed 01:40:35 PM 39.1717 -87.3006 77° East 469 540 39,500 968 Climbing Indianapolis Center
Wed 01:41:37 PM 39.2006 -87.1356 77° East 468 539 40,300 581 Climbing Indianapolis Center
Wed 01:42:39 PM 39.2300 -86.9650 77° East 480 552 40,700 341 Climbing Indianapolis Center
Wed 01:43:40 PM 39.2600 -86.7875 78° East 497 572 41,000 146 Climbing Indianapolis Center
Wed 01:44:42 PM 39.2903 -86.6086 78° East 504 580 41,000  Level Indianapolis Center
Wed 01:45:44 PM 39.3194 -86.4308 78° East 504 580 41,000  Level Indianapolis Center
Wed 01:46:45 PM 39.3478 -86.2533 78° East 501 577 41,000  Level Indianapolis Center
Wed 01:47:47 PM 39.3775 -86.0764 78° East 502 578 41,000  Level Indianapolis Center
Wed 01:48:49 PM 39.4108 -85.8664 78° East 497 572 41,000  Level Indianapolis Center
Wed 01:49:51 PM 39.4408 -85.6906 77° East 498 573 41,000  Level Indianapolis Center
Wed 01:50:52 PM 39.4689 -85.5158 78° East 501 577 41,000  Level Indianapolis Center
Wed 01:51:54 PM 39.4956 -85.3372 79° East 503 579 41,000  Level Indianapolis Center
Wed 01:52:56 PM 39.5228 -85.1572 79° East 507 583 41,000  Level Indianapolis Center
Wed 01:53:57 PM 39.5519 -84.9769 78° East 508 585 41,000  Level Indianapolis Center
Wed 01:54:59 PM 39.5786 -84.7956 79° East 510 587 41,000  Level Indianapolis Center
Wed 01:56:01 PM 39.6061 -84.6114 79° East 514 592 41,000  Level Indianapolis Center
Wed 01:57:02 PM 39.6383 -84.3978 79° East 514 592 41,000  Level Indianapolis Center
Wed 01:58:04 PM 39.6647 -84.2136 79° East 516 594 41,000  Level Indianapolis Center
Wed 01:59:06 PM 39.6914 -84.0303 79° East 513 590 41,000  Level Indianapolis Center
Wed 02:00:08 PM 39.7175 -83.8503 79° East 507 583 41,000  Level Indianapolis Center
Wed 02:01:09 PM 39.7411 -83.6706 80° East 504 580 41,000  Level Indianapolis Center
Wed 02:02:11 PM 39.7717 -83.4719 79° East 509 586 41,000  Level Indianapolis Center
Wed 02:03:13 PM 39.7967 -83.2853 80° East 510 587 41,000  Level Indianapolis Center
Wed 02:04:14 PM 39.8211 -83.1044 80° East 507 583 41,000  Level Indianapolis Center
Wed 02:05:16 PM 39.8456 -82.9225 80° East 508 585 41,000  Level Indianapolis Center
Wed 02:06:18 PM 39.8700 -82.7397 80° East 510 587 41,000  Level Indianapolis Center
Wed 02:07:19 PM 39.8944 -82.5583 80° East 506 582 41,000  Level Indianapolis Center
Wed 02:08:21 PM 39.9181 -82.3761 80° East 506 582 41,000  Level Indianapolis Center
Wed 02:09:23 PM 39.9406 -82.1933 81° East 506 582 41,000  Level Indianapolis Center
Wed 02:10:24 PM 39.9644 -82.0114 80° East 506 582 41,000  Level Indianapolis Center
Wed 02:11:26 PM 39.9892 -81.8025 81° East 498 573 41,000  Level Indianapolis Center
Wed 02:12:27 PM 40.0089 -81.6453 81° East 495 570 41,000  Level Indianapolis Center
Wed 02:13:29 PM 40.0294 -81.4681 81° East 492 566 41,000  Level Indianapolis Center
Wed 02:14:30 PM 40.0511 -81.2911 81° East 491 565 41,000  Level Indianapolis Center
Wed 02:15:32 PM 40.0753 -81.0850 81° East 491 565 41,000  Level Indianapolis Center
Wed 02:15:51 PM 40.0828 -81.0469 76° East 486 559 41,000  Level Cleveland Center
Wed 02:16:51 PM 40.1022 -80.8736 82° East 486 559 41,000  Level Cleveland Center
Wed 02:17:51 PM 40.1233 -80.6997 81° East 486 559 41,000  Level Cleveland Center
Wed 02:18:51 PM 40.1422 -80.5233 82° East 486 559 41,000  Level Cleveland Center
Wed 02:19:51 PM 40.1608 -80.3467 82° East 486 559 41,000  Level Cleveland Center
Wed 02:20:51 PM 40.1811 -80.1511 82° East 486 559 41,000  Level Cleveland Center
Wed 02:21:51 PM 40.2011 -79.9742 82° East 489 563 41,000  Level Cleveland Center
Wed 02:22:51 PM 40.2208 -79.7972 82° East 489 563 41,000  Level Cleveland Center
Wed 02:23:51 PM 40.2383 -79.6231 82° East 489 563 41,000  Level Cleveland Center
Wed 02:24:51 PM 40.2575 -79.4431 82° East 484 557 41,000  Level Cleveland Center
Wed 02:25:51 PM 40.2703 -79.2878 84° East 484 557 41,000 -400 Level Cleveland Center
Wed 02:26:51 PM 40.2908 -79.0914 82° East 484 557 40,200 -1,550 Descending Cleveland Center
Wed 02:27:51 PM 40.3094 -78.9194 82° East 484 557 37,900 -2,450 Descending Cleveland Center
Wed 02:28:51 PM 40.3150 -78.7425 88° East 479 551 35,300 -2,441 Descending Cleveland Center
Wed 02:30:48 PM 40.3144 -78.4128 90° East 509 586 30,700 -3,492 Descending New York Center
Wed 02:31:48 PM 40.3128 -78.2408 91° East 503 579 25,000 -2,205 Descending New York Center
Wed 02:32:45 PM 40.3125 -78.0775 90° East 475 547 26,400  Climbing New York Center
Wed 02:33:46 PM 40.3139 -77.9197 89° East 450 518 25,000 -885 Descending New York Center
Wed 02:34:47 PM 40.3411 -77.7808 76° East 413 475 24,600 -639 Descending New York Center
Wed 02:35:48 PM 40.3717 -77.6475 73° East 396 456 23,700 -1,008 Descending New York Center
Wed 02:36:46 PM 40.3131 -77.5464 127° Southeast 333 383 22,600 -1,109 Descending New York Center
Wed 02:37:47 PM 40.2419 -77.4389 131° Southeast 335 386 21,500 -1,033 Descending New York Center
Wed 02:38:48 PM 40.2408 -77.3083 91° East 340 391 20,500 -950 Descending New York Center
Wed 02:39:47 PM 40.2264 -77.1925 99° East 345 397 19,600 -950 Descending New York Center
Wed 02:40:48 PM 40.2125 -77.0661 98° East 351 404 18,600 -908 Descending New York Center
Wed 02:41:46 PM 40.1967 -76.9289 99° East 351 404 17,800 -864 Descending New York Center
Wed 02:42:46 PM 40.1836 -76.8164 99° East 351 404 16,900 -942 Descending New York Center
Wed 02:43:47 PM 40.1692 -76.6928 99° East 346 398 15,900 -1,050 Descending New York Center
Wed 02:44:46 PM 40.1528 -76.5583 99° East 341 392 14,800 -1,059 Descending New York Center
Wed 02:45:46 PM 40.1378 -76.4375 99° East 336 387 13,800 -1,038 Descending New York Center
Wed 02:46:30 PM 40.1292 -76.3478 97° East 332 382 13,000 -938 Descending FAA TRACON SMA TRACON (SMA)
Wed 02:46:50 PM 40.1214 -76.3114 106° East 331 381 12,800 -900 Descending FAA TRACON SMA TRACON (SMA)
Wed 02:47:10 PM 40.1175 -76.2750 98° East 331 381 12,400 -1,050 Descending FAA TRACON SMA TRACON (SMA)
Wed 02:47:30 PM 40.1150 -76.2381 95° East 329 379 12,100 -900 Descending FAA TRACON SMA TRACON (SMA)
Wed 02:47:50 PM 40.1128 -76.1939 94° East 331 381 11,800 -1,050 Descending FAA TRACON SMA TRACON (SMA)
Wed 02:48:10 PM 40.1103 -76.1561 95° East 327 376 11,400 -1,050 Descending FAA TRACON SMA TRACON (SMA)
Wed 02:48:30 PM 40.1081 -76.1206 95° East 324 373 11,100 -1,050 Descending FAA TRACON SMA TRACON (SMA)
Wed 02:48:50 PM 40.1047 -76.0775 96° East 321 369 10,700 -1,050 Descending FAA TRACON SMA TRACON (SMA)
Wed 02:49:10 PM 40.1031 -76.0419 93° East 315 362 10,400 -1,050 Descending FAA TRACON SMA TRACON (SMA)
Wed 02:49:30 PM 40.1000 -76.0000 95° East 307 353 10,000 -1,050 Descending FAA TRACON SMA TRACON (SMA)
Wed 02:49:50 PM 40.0981 -75.9681 95° East 305 351 9,700 -900 Descending FAA TRACON SMA TRACON (SMA)
Wed 02:50:10 PM 40.0967 -75.9333 93° East 302 348 9,400 -1,050 Descending FAA TRACON SMA TRACON (SMA)
Wed 02:50:30 PM 40.0928 -75.8917 97° East 300 345 9,000 -1,050 Descending FAA TRACON SMA TRACON (SMA)
Wed 02:50:50 PM 40.0903 -75.8589 96° East 298 343 8,700 -900 Descending FAA TRACON SMA TRACON (SMA)
Wed 02:51:10 PM 40.0878 -75.8264 96° East 295 339 8,400 -900 Descending FAA TRACON SMA TRACON (SMA)
Wed 02:51:30 PM 40.0853 -75.7919 95° East 294 338 8,100 -600 Descending FAA TRACON SMA TRACON (SMA)
Wed 02:51:50 PM 40.0825 -75.7531 95° East 293 337 8,000 -1,100 Descending FAA TRACON SMA TRACON (SMA)
Wed 02:52:30 PM 40.0786 -75.6808 94° East 289 333 7,000 -1,400 Descending FAA TRACON SMA TRACON (SMA)
Wed 02:52:50 PM 40.0775 -75.6494 93° East 285 328 6,600 -1,200 Descending FAA TRACON SMA TRACON (SMA)
Wed 02:53:10 PM 40.0764 -75.6172 93° East 284 327 6,200 -900 Descending FAA TRACON SMA TRACON (SMA)
Wed 02:53:30 PM 40.0747 -75.5797 93° East 282 325 6,000 -300 Descending FAA TRACON SMA TRACON (SMA)
Wed 02:53:50 PM 40.0725 -75.5475 95° East 280 322 6,000  Level FAA TRACON SMA TRACON (SMA)
Wed 02:54:10 PM 40.0711 -75.5169 93° East 276 318 6,000  Level FAA TRACON SMA TRACON (SMA)
Wed 02:54:30 PM 40.0692 -75.4797 94° East 276 318 6,000  Level FAA TRACON SMA TRACON (SMA)
Wed 02:54:50 PM 40.0675 -75.4497 94° East 277 319 6,000  Level FAA TRACON SMA TRACON (SMA)
Wed 02:55:10 PM 40.0547 -75.4219 121° Southeast 278 320 6,000  Level FAA TRACON SMA TRACON (SMA)
Wed 02:55:30 PM 40.0342 -75.4100 156° South 268 308 6,000  Level FAA TRACON SMA TRACON (SMA)
Wed 02:55:53 PM 40.0069 -75.4017 167° South 265 305 6,000  Level FAA TRACON SMA TRACON (SMA)
Wed 02:56:13 PM 39.9803 -75.3939 167° South 250 288 6,000  Level FAA TRACON SMA TRACON (SMA)
Wed 02:56:30 PM 39.9611 -75.3889 169° South 238 274 6,000  Level FAA TRACON SMA TRACON (SMA)
Wed 02:56:50 PM 39.9417 -75.3956 195° South 215 247 6,000  Level FAA TRACON SMA TRACON (SMA)
Wed 02:57:09 PM 39.9294 -75.4128 227° Southwest 214 246 6,000  Level FAA TRACON SMA TRACON (SMA)
Wed 02:57:29 PM 39.9236 -75.4336 250° West 193 222 6,000 -150 Level FAA TRACON SMA TRACON (SMA)
Wed 02:57:49 PM 39.9186 -75.4558 254° West 181 208 5,900 -450 Descending FAA TRACON SMA TRACON (SMA)
Wed 02:58:09 PM 39.9131 -75.4797 253° West 174 200 5,700 -750 Descending FAA TRACON SMA TRACON (SMA)
Wed 02:58:29 PM 39.9083 -75.4983 252° West 172 198 5,400 -900 Descending FAA TRACON SMA TRACON (SMA)
Wed 02:58:49 PM 39.9039 -75.5167 252° West 172 198 5,100 -600 Descending FAA TRACON SMA TRACON (SMA)
Wed 02:59:09 PM 39.8997 -75.5364 255° West 172 198 5,000 -150 Descending FAA TRACON SMA TRACON (SMA)
Wed 02:59:29 PM 39.8961 -75.5553 256° West 173 199 5,000 -450 Level FAA TRACON SMA TRACON (SMA)
Wed 02:59:49 PM 39.8817 -75.5706 219° Southwest 190 219 4,700 -750 Descending FAA TRACON SMA TRACON (SMA)
Wed 03:00:09 PM 39.8664 -75.5769 198° South 195 224 4,500 -750 Descending FAA TRACON SMA TRACON (SMA)
Wed 03:00:29 PM 39.8456 -75.5772 181° South 179 206 4,200 -900 Descending FAA TRACON SMA TRACON (SMA)
Wed 03:00:49 PM 39.8303 -75.5692 158° South 192 221 3,900 -750 Descending FAA TRACON SMA TRACON (SMA)
Wed 03:01:09 PM 39.8231 -75.5508 117° Southeast 195 224 3,700 -878 Descending FAA TRACON SMA TRACON (SMA)
Wed 03:01:30 PM 39.8167 -75.5250 108° East 185 213 3,300 -878 Descending FAA TRACON SMA TRACON (SMA)
Wed 03:01:50 PM 39.8156 -75.5056 94° East 190 219 3,100 -450 Descending FAA TRACON SMA TRACON (SMA)
Wed 03:02:10 PM 39.8186 -75.4850 79° East 182 209 3,000 -300 Descending FAA TRACON SMA TRACON (SMA)
Wed 03:02:30 PM 39.8239 -75.4600 75° East 188 216 2,900 -615 Descending FAA TRACON SMA TRACON (SMA)
Wed 03:02:49 PM 39.8278 -75.4397 76° East 188 216 2,600 -900 Descending FAA TRACON SMA TRACON (SMA)
Wed 03:03:10 PM 39.8319 -75.4194 75° East 188 216 2,300 -1,024 Descending FAA TRACON SMA TRACON (SMA)
Wed 03:03:30 PM 39.8364 -75.3967 76° East 185 213 1,900 -1,050 Descending FAA TRACON SMA TRACON (SMA)
Wed 03:03:50 PM 39.8397 -75.3764 78° East 181 208 1,600 -750 Descending FAA TRACON SMA TRACON (SMA)
Wed 03:04:10 PM 39.8442 -75.3583 72° East 168 193 1,400 -750 Descending FAA TRACON SMA TRACON (SMA)
Wed 03:04:30 PM 39.8478 -75.3397 76° East 143 165 1,100 -750 Descending FAA TRACON SMA TRACON (SMA)
Wed 03:04:50 PM 39.8508 -75.3253 75° East 137 158 900 -750 Descending FAA TRACON SMA TRACON (SMA)
Wed 03:05:10 PM 39.8539 -75.3103 75° East 137 158 600 -750 Descending FAA TRACON SMA TRACON (SMA)
Wed 03:05:30 PM 39.8572 -75.2928 76° East 132 152 400 -750 Descending FAA TRACON SMA TRACON (SMA)
Wed 03:05:50 PM 39.8603 -75.2789 74° East 130 150 100 -295 Descending FAA TRACON SMA TRACON (SMA)
Wed 03:06:31 PM 39.8603 -75.2789 159° South 130 150 100  Level FAA TRACON SMA TRACON (SMA)
Wed 03:08:00 PM 39.8722 -75.2409 68° East  Level Estimated

Login

Don't have an account? Register now (free) for customized features, flight alerts, and more!